WEATHER DATA

TODAY
Time Temp. Dewp. Hum. Bar. 1h Prec. 24h Prec.
00:43 12.4 8.9 79 1022.2 0.0000 0.0000
00:53 12.4 8.7 78 1022 0.0000 0.0000
01:01 12.4 8.7 78 1022.1 0.0000 0.0000
01:13 12.4 8.7 78 1022.1 0.0000 0.0000
01:24 12.4 8.7 78 1022 0.0000 0.0000
01:34 12.4 8.7 78 1022.1 0.0000 0.0000
01:44 12.4 8.7 78 1021.9 0.0000 0.0000
01:53 12.3 8.6 78 1021.9 0.0000 0.0000
02:04 12.3 8.6 78 1021.8 0.0000 0.0000
02:14 12.2 8.7 79 1021.8 0.0000 0.0000
02:24 12.1 8.6 79 1021.9 0.0000 0.0000
02:34 11.9 8.6 80 1022 0.0000 0.0000
02:45 11.8 8.5 80 1021.9 0.0000 0.0000
02:54 11.7 8.4 80 1021.8 0.0000 0.0000
03:04 11.5 8.4 81 1021.7 0.0000 0.0000
03:15 11.4 8.3 81 1021.9 0.0000 0.0000
03:25 11.3 8.2 81 1021.8 0.0000 0.0000
03:34 11.2 8.2 82 1021.9 0.0000 0.0000
03:45 11.1 8.1 82 1021.9 0.0000 0.0000
03:54 11 8 82 1021.9 0.0000 0.0000
03:57 11 8 82 1021.8 0.0000 0.0000
04:15 11 8 82 1021.8 0.0000 0.0000
04:24 10.9 7.8 81 1021.8 0.0000 0.0000
04:35 10.9 8 82 1021.7 0.0000 0.0000
04:46 10.8 7.9 82 1021.8 0.0000 0.0000
04:54 10.8 7.9 82 1021.8 0.0000 0.0000
05:06 10.7 7.8 82 1021.9 0.0000 0.0000
05:13 10.6 7.7 82 1021.9 0.0000 0.0000
05:26 10.6 7.8 83 1021.9 0.0000 0.0000
05:36 10.5 7.7 83 1021.9 0.0000 0.0000
05:46 10.5 7.7 83 1022.1 0.0000 0.0000
05:57 10.4 7.8 84 1022 0.0000 0.0000
06:06 10.3 7.7 84 1022 0.0000 0.0000
06:16 10.3 7.7 84 1021.8 0.0000 0.0000
06:27 10.3 7.7 84 1021.9 0.0000 0.0000
06:36 10.3 7.7 84 1021.9 0.0000 0.0000
06:47 10.4 8 85 1021.9 0.0000 0.0000
06:57 10.6 8.2 85 1021.7 0.0000 0.0000
07:06 10.7 8.3 85 1021.9 0.0000 0.0000
07:17 10.8 8.2 84 1021.6 0.0000 0.0000
07:27 11 8.6 85 1021.8 0.0000 0.0000
07:37 11.1 8.5 84 1021.8 0.0000 0.0000
07:47 11.1 8.5 84 1021.9 0.0000 0.0000
07:58 11.2 8.6 84 1021.9 0.0000 0.0000
08:02 11.2 8.6 84 1021.9 0.0000 0.0000
08:17 11.3 9 86 1021.9 0.0000 0.0000
08:26 11.3 9.2 87 1022.2 0.0000 0.0000
08:38 11.2 9.1 87 1022 0.0000 0.0000
08:54 11.2 9.5 89 1022 0.0000 0.0000
09:00 11.3 9.7 90 1021.7 0.0000 0.0000
10:51 14.2 10.8 80 1021.7 0.0000 0.0000
11:06 15.1 11.5 79 1021.6 0.0000 0.0000
11:21 15.6 10.4 71 1021.8 0.0000 0.0000
13:01 15.9 11.3 74 1021.5 0.0000 0.0000
14:13 16.9 11.4 70 1021.6 0.0000 0.0000
14:16 16.8 11.3 70 1020.8 0.0000 0.0000
15:15 17.5 11.3 67 1020.7 0.0000 0.0000
15:22 17.3 11.1 67 1020.7 0.0000 0.0000
16:15 16.5 11.4 72 1020.5 0.0000 0.0000
16:20 16.6 11.3 71 1020.4 0.0000 0.0000
16:27 16.7 11.4 71 1020.3 0.0000 0.0000
16:50 17.3 11.3 68 1020 0.0000 0.0000
17:03 17.3 11.8 70 1020.1 0.0000 0.0000
17:12 17.3 11.3 68 1020.1 0.0000 0.0000
17:25 17.1 11.6 70 1020 0.0000 0.0000
17:31 17.1 11.6 70 1019.9 0.0000 0.0000
17:49 17.2 11.5 69 1019.7 0.0000 0.0000
18:02 17.1 11.4 69 1019.7 0.0000 0.0000
18:15 17 11.5 70 1019.6 0.0000 0.0000
18:23 17 11.3 69 1019.5 0.0000 0.0000
18:41 17.1 11.4 69 1019.5 0.0000 0.0000
18:50 17.1 11.2 68 1019.5 0.0000 0.0000
19:00 17 10.8 67 1019.4 0.0000 0.0000
19:08 17 11.1 68 1019.4 0.0000 0.0000

DAY STATISTIC

2018-06-23
TEMPERATURE
AVERAGE
13.0
HIGH
17.5
15:15
LOW
10.3
06:06
PRESSURE
AVERAGE
1021.4
HIGH
1022.2
00:43
LOW
1019.4
19:00
DEWPOINT
AVERAGE
9.3
HIGH
11.8
17:03
LOW
7.7
05:13
HUMIDITY
AVERAGE
78
HIGH
90
09:00
LOW
67
15:15
PRECIPITATION
RAIN HOUR
0.0
RAIN DAY
0.0
TEMPERATURE (°C)
LOW
10.3
HIGH
17.5
AVERAGE
13.0
PRESSURE (hpa)
LOW
1019.4
HIGH
1022.2
AVERAGE
1021.4
DEVICE